Kenmore, WA (98028)

8:51 PM PDT on April 26, 2017 (GMT -0700)
Northshore Utility District | | Change Station

Elev 60 ft 47.76 °N, 122.25 °W | Updated 4 minutes ago

Rain
Rain
46.2 °F
Feels Like 46 °F
N
0.0
Wind Variable Wind from NE
Gusts 4.0 mph

Today
High -- | Low -- °F
--% Chance of Precip.
Yesterday
High -- | Low -- °F
Precip. -- in
Pressure 29.92 in
Visibility 5.0 miles
Clouds Mostly Cloudy 1500 ft
Overcast 3100 ft
Windchill 46 °F
Dew Point 43 °F
Humidity 88%
Rainfall 0.32 in
Snow Depth Not available.
5:59 AM 8:15 PM
New Moon, 1% visible
SPECI KPAE 270313Z 00000KT 5SM -RA BR BKN015 OVC031 07/06 A2992 RMK AO2 P0002 T00720056
Pressure 29.92 in
Visibility 5.0 miles
Clouds Mostly Cloudy 1500 ft
Overcast 3100 ft
Windchill 46 °F
Dew Point 43 °F
Humidity 88%
Rainfall 0.32 in
Snow Depth Not available.
5:59 AM 8:15 PM
New Moon, 1% visible
SPECI KPAE 270313Z 00000KT 5SM -RA BR BKN015 OVC031 07/06 A2992 RMK AO2 P0002 T00720056

Get Severe Weather Alerts

Thanks for signing up!

Be on the lookout for a verification email in your inbox.

You'll start receiving the daily forecast at 8 AM.

×

10-Day Weather Forecast

Almanac

Astronomy

Apr. 26, 2017 Rise Set
Actual Time
Civil Twilight
Nautical Twilight
Astronomical Twilight
Moon
Length of Visible Light
Length of Day
Tomorrow will be .
, % of the Moon is Illuminated

Today's Extremes

State Highs State Lows

Community

WunderPhotos

WunderBlog® & News

Nearby

Air Quality

  Air Quality AQ Index Pollutant
Not available.

Snow Depth

Station Depth Elevation

Earthquake Activity

City Distance Mag. Time & Date
Minimum magnitude displayed is 2.5.

Coastal Water Temperatures

Place Temperature

Stations

Nearby Weather Stations

Station Location Temp. Windchill Dew Point Humidity Wind Precip. Elev Updated Type
                   

Watches & Warnings

There are currently no watches in effect.